Time;durP1;ratioP1;P1;durP2;ratioP2;P2;SDS_P1;SDS_P2;PMS_P1;PMS_P2;Temp;Humidity;BMP_temperature;BMP_pressure;BME280_temperature;BME280_humidity;BME280_pressure;Samples;Min_cycle;Max_cycle;Signal;HPM_P1;HPM_P2
2022/10/02 00:02:14;;;;;;;33.83;7.15;;;12.50;99.90;;;;;;5059813;28;20381;-72
2022/10/02 00:04:45;;;;;;;42.90;7.68;;;12.70;99.90;;;;;;5058571;28;20396;-72
2022/10/02 00:07:12;;;;;;;34.53;6.85;;;12.60;99.90;;;;;;5058788;28;20377;-73
2022/10/02 00:09:41;;;;;;;37.75;7.03;;;12.70;99.90;;;;;;5052172;28;20416;-70
2022/10/02 00:12:13;;;;;;;43.85;7.75;;;12.60;99.90;;;;;;5053245;28;20431;-72
2022/10/02 00:14:41;;;;;;;29.13;6.70;;;12.60;99.90;;;;;;5053233;28;20424;-71
2022/10/02 00:17:35;;;;;;;29.80;6.43;;;12.70;99.90;;;;;;5053118;28;20377;-70
2022/10/02 00:20:00;;;;;;;29.77;6.68;;;12.80;99.90;;;;;;5053031;28;20476;-70
2022/10/02 00:22:55;;;;;;;38.55;8.00;;;12.70;99.90;;;;;;5051591;28;20420;-70
2022/10/02 00:25:32;;;;;;;38.40;7.05;;;12.80;99.90;;;;;;5053201;28;20808;-71
2022/10/02 00:28:10;;;;;;;35.80;8.00;;;13.00;99.90;;;;;;5053156;28;20373;-70
2022/10/02 00:30:50;;;;;;;41.13;6.97;;;12.90;99.90;;;;;;5052541;28;20413;-70
2022/10/02 00:33:26;;;;;;;36.20;7.80;;;13.00;99.90;;;;;;5052469;28;20382;-72
2022/10/02 00:36:23;;;;;;;38.20;6.85;;;13.00;99.90;;;;;;5052577;28;20427;-71
2022/10/02 00:39:12;;;;;;;39.63;7.13;;;12.90;99.90;;;;;;5052774;28;20849;-69
2022/10/02 00:41:50;;;;;;;44.67;8.70;;;13.00;99.90;;;;;;5052193;28;20393;-70
2022/10/02 00:44:18;;;;;;;32.70;7.30;;;13.20;99.90;;;;;;5052146;28;20409;-70
2022/10/02 00:46:52;;;;;;;35.10;6.43;;;13.30;99.90;;;;;;5052457;28;20495;-70
2022/10/02 00:49:32;;;;;;;31.90;6.97;;;13.30;99.90;;;;;;5051960;28;20412;-70
2022/10/02 00:52:13;;;;;;;40.97;7.95;;;13.20;99.90;;;;;;5051865;28;20377;-71
2022/10/02 00:54:45;;;;;;;36.33;7.40;;;13.30;99.90;;;;;;5051844;28;20377;-71
2022/10/02 00:57:34;;;;;;;37.58;7.32;;;13.40;99.90;;;;;;5051606;28;20390;-71
2022/10/02 01:00:15;;;;;;;34.75;6.55;;;13.50;99.90;;;;;;5051969;28;20431;-70
2022/10/02 01:03:03;;;;;;;37.70;7.20;;;13.40;99.90;;;;;;5051847;28;20758;-70
2022/10/02 01:05:29;;;;;;;38.42;7.50;;;13.40;99.90;;;;;;5051698;28;20896;-71
2022/10/02 01:07:56;;;;;;;31.45;6.90;;;13.40;99.90;;;;;;5051872;28;20439;-70
2022/10/02 01:10:24;;;;;;;38.05;7.78;;;13.40;99.90;;;;;;5051532;28;20912;-70
2022/10/02 01:12:52;;;;;;;37.17;8.23;;;13.30;99.90;;;;;;5051475;28;20444;-72
2022/10/02 01:15:20;;;;;;;44.90;7.15;;;13.30;99.90;;;;;;5051510;28;20384;-70
2022/10/02 01:17:49;;;;;;;39.50;7.80;;;13.30;99.90;;;;;;5051504;28;20378;-70
2022/10/02 01:20:19;;;;;;;34.87;7.60;;;13.30;99.90;;;;;;5051296;28;20849;-70
2022/10/02 01:23:00;;;;;;;41.20;7.75;;;13.50;99.90;;;;;;5051168;28;20392;-71
2022/10/02 01:25:27;;;;;;;47.53;7.95;;;13.50;99.90;;;;;;5051565;28;20514;-70
2022/10/02 01:27:53;;;;;;;40.67;7.63;;;13.60;99.90;;;;;;5056618;28;20385;-71
2022/10/02 01:30:19;;;;;;;50.00;9.20;;;13.60;99.90;;;;;;5057038;28;20542;-72
2022/10/02 01:32:54;;;;;;;34.40;7.83;;;13.60;99.90;;;;;;5057349;28;20407;-72
2022/10/02 01:35:21;;;;;;;35.80;7.18;;;13.70;99.90;;;;;;5056126;28;20393;-72
2022/10/02 01:37:49;;;;;;;32.67;7.00;;;13.70;99.90;;;;;;5055678;28;20374;-71
2022/10/02 01:40:36;;;;;;;42.80;8.17;;;13.70;99.90;;;;;;5060041;28;20413;-71
2022/10/02 01:43:22;;;;;;;44.33;7.75;;;13.70;99.90;;;;;;5064407;28;20381;-71
2022/10/02 01:46:26;;;;;;;31.23;7.28;;;13.70;99.90;;;;;;5056994;28;20381;-70
2022/10/02 01:49:03;;;;;;;42.47;8.00;;;13.70;99.90;;;;;;5055598;28;20467;-70
2022/10/02 01:51:47;;;;;;;40.47;7.30;;;13.70;99.90;;;;;;5055528;28;20386;-70
2022/10/02 01:54:44;;;;;;;41.40;7.68;;;13.70;99.90;;;;;;5053542;28;20408;-71
2022/10/02 01:57:15;;;;;;;46.05;8.40;;;13.60;99.90;;;;;;5050564;28;20392;-72
2022/10/02 02:00:25;;;;;;;40.80;7.57;;;13.60;99.90;;;;;;5051696;28;20381;-71
2022/10/02 02:02:51;;;;;;;43.53;8.00;;;13.60;99.90;;;;;;5028893;28;20434;-70
2022/10/02 02:05:39;;;;;;;42.50;7.88;;;13.80;99.90;;;;;;5029199;28;20392;-70
2022/10/02 02:08:25;;;;;;;47.97;8.75;;;13.80;99.90;;;;;;5035175;28;20401;-70
2022/10/02 02:11:02;;;;;;;51.08;8.75;;;13.80;99.90;;;;;;5050987;28;20430;-70
2022/10/02 02:13:48;;;;;;;45.13;7.60;;;13.90;99.90;;;;;;5054701;28;20378;-71
2022/10/02 02:16:22;;;;;;;35.15;7.88;;;13.80;99.90;;;;;;5054193;28;20814;-72
2022/10/02 02:19:12;;;;;;;42.47;8.18;;;13.80;99.90;;;;;;5050983;28;20389;-72
2022/10/02 02:21:43;;;;;;;43.88;7.85;;;13.90;99.90;;;;;;5050375;28;20460;-70
2022/10/02 02:24:40;;;;;;;46.33;8.00;;;13.90;99.90;;;;;;5050625;28;20398;-71
2022/10/02 02:27:09;;;;;;;40.88;8.10;;;14.00;99.90;;;;;;5050140;28;20454;-71
2022/10/02 02:29:36;;;;;;;46.10;8.43;;;14.00;99.90;;;;;;5050327;28;20449;-72
2022/10/02 02:32:07;;;;;;;47.33;8.82;;;14.00;99.90;;;;;;5050172;28;20386;-71
2022/10/02 02:34:41;;;;;;;44.30;8.45;;;13.90;99.90;;;;;;5050241;28;20476;-71
2022/10/02 02:37:12;;;;;;;48.63;8.60;;;13.90;99.90;;;;;;5050759;28;20381;-70
2022/10/02 02:39:51;;;;;;;41.30;8.10;;;13.90;99.90;;;;;;5050493;28;20770;-70
2022/10/02 02:42:20;;;;;;;55.30;9.30;;;13.90;99.90;;;;;;5050350;28;20386;-71
2022/10/02 02:45:08;;;;;;;49.00;8.15;;;14.00;99.90;;;;;;5050475;28;20442;-70
2022/10/02 02:47:40;;;;;;;47.30;8.45;;;14.00;99.90;;;;;;5050370;28;20941;-71
2022/10/02 02:50:35;;;;;;;52.20;9.02;;;14.00;99.90;;;;;;5049130;28;20491;-71
2022/10/02 02:53:07;;;;;;;46.50;8.20;;;14.00;99.90;;;;;;5048958;28;20490;-72
2022/10/02 02:55:51;;;;;;;44.15;8.63;;;14.00;99.90;;;;;;5050856;28;20400;-72
2022/10/02 02:58:46;;;;;;;48.80;8.50;;;14.00;99.90;;;;;;5054616;28;20390;-73
2022/10/02 03:01:12;;;;;;;45.85;8.68;;;14.10;99.90;;;;;;5052011;28;20388;-72
2022/10/02 03:03:37;;;;;;;51.50;9.50;;;14.20;99.90;;;;;;5048671;28;20393;-71
2022/10/02 03:06:14;;;;;;;43.70;7.97;;;14.20;99.90;;;;;;5053498;28;20380;-72
2022/10/02 03:08:40;;;;;;;34.53;8.13;;;14.30;99.90;;;;;;5053809;28;20439;-72
2022/10/02 03:11:27;;;;;;;34.30;7.67;;;14.30;99.90;;;;;;5053668;28;20469;-71
2022/10/02 03:13:59;;;;;;;46.20;8.03;;;14.30;99.90;;;;;;5053704;28;20390;-70
2022/10/02 03:16:49;;;;;;;45.05;8.73;;;14.20;99.90;;;;;;5053582;28;20424;-72
2022/10/02 03:19:19;;;;;;;49.17;7.90;;;14.20;99.90;;;;;;5053727;28;20400;-70
2022/10/02 03:22:04;;;;;;;55.80;8.45;;;14.20;99.90;;;;;;5053496;28;20480;-71
2022/10/02 03:24:48;;;;;;;41.65;8.02;;;14.30;99.90;;;;;;5053787;28;20412;-71
2022/10/02 03:27:26;;;;;;;49.10;8.85;;;14.40;99.90;;;;;;5053861;28;20413;-72
2022/10/02 03:30:00;;;;;;;53.38;8.50;;;14.30;99.90;;;;;;5058077;28;20428;-72
2022/10/02 03:32:27;;;;;;;48.65;8.10;;;14.40;99.90;;;;;;5057750;28;20928;-70
2022/10/02 03:34:53;;;;;;;51.95;8.57;;;14.40;99.90;;;;;;5052453;28;20388;-70
2022/10/02 03:37:20;;;;;;;40.97;8.60;;;14.50;99.90;;;;;;5053818;28;20393;-71
2022/10/02 03:39:47;;;;;;;47.92;8.20;;;14.50;99.90;;;;;;5053668;28;20378;-70
2022/10/02 03:42:15;;;;;;;46.08;8.57;;;14.60;99.90;;;;;;5053311;28;20397;-70
2022/10/02 03:44:42;;;;;;;40.03;7.75;;;14.70;99.90;;;;;;5053106;28;20381;-70
2022/10/02 03:47:07;;;;;;;37.20;7.28;;;14.60;99.90;;;;;;5053132;28;20392;-71
2022/10/02 03:49:33;;;;;;;36.37;6.17;;;14.60;99.90;;;;;;5052759;28;20968;-71
2022/10/02 03:51:59;;;;;;;32.13;5.45;;;14.50;99.90;;;;;;5052853;28;20906;-70
2022/10/02 03:54:29;;;;;;;27.33;5.63;;;14.40;99.90;;;;;;5052926;28;20386;-70
2022/10/02 03:57:02;;;;;;;24.17;5.47;;;14.20;99.90;;;;;;5053225;28;20424;-71
2022/10/02 03:59:59;;;;;;;19.25;4.80;;;14.10;99.90;;;;;;5052978;28;20477;-70
2022/10/02 04:02:37;;;;;;;23.20;5.57;;;14.00;99.90;;;;;;5053171;28;20464;-70
2022/10/02 04:05:32;;;;;;;24.15;5.07;;;14.00;99.90;;;;;;5052795;28;20385;-75
2022/10/02 04:08:09;;;;;;;30.55;5.43;;;13.90;99.90;;;;;;5053205;28;20877;-70
2022/10/02 04:11:02;;;;;;;19.35;5.10;;;13.90;99.90;;;;;;5052842;28;20767;-71
2022/10/02 04:13:33;;;;;;;32.13;6.10;;;13.90;99.90;;;;;;5052741;28;20404;-70
2022/10/02 04:16:22;;;;;;;31.23;6.03;;;14.00;99.90;;;;;;5052267;28;20438;-71
2022/10/02 04:19:10;;;;;;;38.65;6.60;;;14.10;99.90;;;;;;5030924;28;20393;-70
2022/10/02 04:21:45;;;;;;;23.33;4.50;;;14.20;99.90;;;;;;5052361;28;20418;-71
2022/10/02 04:24:23;;;;;;;29.40;5.18;;;14.10;99.90;;;;;;5066993;22;20936;-73
2022/10/02 04:27:14;;;;;;;30.27;5.50;;;14.10;99.90;;;;;;5053760;28;20738;-71
2022/10/02 04:29:50;;;;;;;54.05;5.90;;;14.00;99.90;;;;;;5056284;28;20466;-72
2022/10/02 04:32:21;;;;;;;9.20;2.30;;;13.70;99.90;;;;;;5073981;28;20405;-70
2022/10/02 04:34:47;;;;;;;11.48;3.03;;;13.30;99.90;;;;;;5072248;28;20447;-72
2022/10/02 04:37:21;;;;;;;12.80;3.10;;;13.10;99.90;;;;;;5060904;28;20393;-71
2022/10/02 04:40:10;;;;;;;11.50;3.50;;;13.10;99.90;;;;;;5052707;28;20397;-72
2022/10/02 04:42:53;;;;;;;12.43;3.40;;;13.00;99.90;;;;;;5055203;28;20784;-72
2022/10/02 04:45:25;;;;;;;10.18;3.55;;;12.90;99.90;;;;;;5052300;28;20390;-72
2022/10/02 04:47:51;;;;;;;9.98;3.00;;;12.90;99.90;;;;;;5051947;28;20862;-72
2022/10/02 04:50:50;;;;;;;9.10;3.17;;;13.00;99.90;;;;;;5051875;28;20455;-72
2022/10/02 04:53:47;;;;;;;14.93;3.40;;;13.00;99.90;;;;;;5051848;28;20417;-71
2022/10/02 04:56:28;;;;;;;14.40;3.80;;;13.00;99.90;;;;;;5051678;28;20381;-72
2022/10/02 04:59:15;;;;;;;13.23;3.92;;;13.00;99.90;;;;;;5053196;28;20389;-72
2022/10/02 05:01:57;;;;;;;23.50;4.78;;;13.10;99.90;;;;;;5051500;28;20389;-73
2022/10/02 05:04:53;;;;;;;28.17;5.95;;;13.30;99.90;;;;;;5051561;28;20394;-72
2022/10/02 05:07:38;;;;;;;24.42;5.80;;;13.40;99.90;;;;;;5052047;28;20386;-71
2022/10/02 05:10:24;;;;;;;23.38;6.47;;;13.40;99.90;;;;;;5051848;28;20405;-73
2022/10/02 05:13:05;;;;;;;27.23;6.35;;;13.30;99.90;;;;;;5051676;28;20381;-72
2022/10/02 05:16:21;;;;;;;31.92;8.25;;;13.40;99.90;;;;;;5051593;28;20435;-72
2022/10/02 05:19:16;;;;;;;49.20;9.13;;;13.60;99.90;;;;;;5042246;28;20792;-72
2022/10/02 05:22:03;;;;;;;50.17;9.63;;;13.70;99.90;;;;;;5040978;28;20464;-71
2022/10/02 05:24:49;;;;;;;43.78;8.85;;;13.70;99.90;;;;;;5051200;28;20439;-71
2022/10/02 05:27:26;;;;;;;45.83;8.35;;;13.80;99.90;;;;;;5050635;28;20415;-71
2022/10/02 05:30:09;;;;;;;42.00;8.25;;;13.80;99.90;;;;;;5051057;28;20410;-74
2022/10/02 05:32:55;;;;;;;38.57;8.50;;;13.80;99.90;;;;;;5050677;28;20435;-73
2022/10/02 05:35:43;;;;;;;37.60;8.55;;;13.80;99.90;;;;;;5050682;28;20373;-71
2022/10/02 05:38:22;;;;;;;45.10;8.77;;;13.80;99.90;;;;;;5050916;28;20401;-73
2022/10/02 05:40:51;;;;;;;37.33;8.38;;;13.80;99.90;;;;;;5050879;28;20420;-72
2022/10/02 05:43:40;;;;;;;31.75;7.03;;;13.80;99.90;;;;;;5050734;28;20385;-72
2022/10/02 05:46:29;;;;;;;25.20;6.53;;;13.80;99.90;;;;;;5049938;28;20412;-72
2022/10/02 05:49:03;;;;;;;23.15;6.93;;;13.80;99.90;;;;;;5051036;28;20409;-72
2022/10/02 05:51:55;;;;;;;34.92;8.13;;;13.90;99.90;;;;;;5051125;28;20404;-70
2022/10/02 05:54:20;;;;;;;30.35;7.00;;;13.70;99.90;;;;;;5051057;28;20382;-73
2022/10/02 05:56:55;;;;;;;31.10;7.80;;;13.70;99.90;;;;;;5051334;28;20385;-72
2022/10/02 05:59:43;;;;;;;29.38;7.03;;;13.60;99.90;;;;;;5051188;28;20403;-72
2022/10/02 06:02:25;;;;;;;24.00;6.20;;;13.60;99.90;;;;;;5050562;28;20389;-73
2022/10/02 06:05:11;;;;;;;28.23;7.13;;;13.60;99.90;;;;;;5050691;28;20396;-73
2022/10/02 06:07:37;;;;;;;21.13;6.40;;;13.60;99.90;;;;;;5050725;28;20875;-72
2022/10/02 06:10:13;;;;;;;24.95;6.38;;;13.60;99.90;;;;;;5050826;28;20834;-72
2022/10/02 06:12:47;;;;;;;20.90;6.03;;;13.70;99.90;;;;;;5050705;28;20440;-72
2022/10/02 06:15:35;;;;;;;27.80;6.97;;;13.80;99.90;;;;;;5050712;28;20390;-72
2022/10/02 06:18:07;;;;;;;28.30;7.50;;;13.90;99.90;;;;;;5050982;28;20499;-73
2022/10/02 06:20:40;;;;;;;34.92;8.30;;;14.00;99.90;;;;;;5050681;28;20396;-73
2022/10/02 06:23:14;;;;;;;34.65;7.68;;;14.00;99.90;;;;;;5050545;28;20438;-74
2022/10/02 06:25:44;;;;;;;33.03;8.43;;;14.10;99.90;;;;;;5050779;28;20394;-72
2022/10/02 06:28:34;;;;;;;39.33;7.93;;;14.10;99.90;;;;;;5050704;28;20884;-71
2022/10/02 06:31:24;;;;;;;39.28;9.20;;;14.20;99.90;;;;;;5050589;28;20753;-72
2022/10/02 06:33:51;;;;;;;34.97;8.68;;;14.30;99.90;;;;;;5051160;28;20430;-73
2022/10/02 06:36:16;;;;;;;33.15;8.90;;;14.40;99.90;;;;;;5050987;28;20475;-72
2022/10/02 06:39:19;;;;;;;36.93;8.60;;;14.40;99.90;;;;;;5052372;28;20460;-72
2022/10/02 06:42:03;;;;;;;36.60;8.23;;;14.40;99.90;;;;;;5054319;28;20780;-72
2022/10/02 06:44:39;;;;;;;31.83;7.97;;;14.50;99.90;;;;;;5053838;28;20396;-73
2022/10/02 06:47:20;;;;;;;34.17;8.30;;;14.50;99.90;;;;;;5053899;28;20370;-72
2022/10/02 06:50:10;;;;;;;29.98;8.02;;;14.40;99.90;;;;;;5053688;28;20928;-73
2022/10/02 06:52:47;;;;;;;32.17;8.32;;;14.30;99.90;;;;;;5053693;28;20385;-72
2022/10/02 06:55:38;;;;;;;34.13;8.88;;;14.40;99.90;;;;;;5053882;28;20431;-72
2022/10/02 06:59:05;;;;;;;25.85;8.00;;;14.30;99.90;;;;;;5054229;28;20937;-72
2022/10/02 07:01:49;;;;;;;24.83;7.88;;;14.50;99.90;;;;;;5031479;28;20787;-72
2022/10/02 07:04:40;;;;;;;34.00;9.10;;;14.50;99.90;;;;;;5052210;28;20390;-72
2022/10/02 07:07:33;;;;;;;34.65;9.32;;;14.50;99.90;;;;;;5054474;28;20796;-71
2022/10/02 07:10:25;;;;;;;33.13;8.80;;;14.50;99.90;;;;;;5053963;28;20404;-72
2022/10/02 07:13:12;;;;;;;32.95;9.18;;;14.50;99.90;;;;;;5053503;28;20382;-72
2022/10/02 07:15:41;;;;;;;38.67;10.13;;;14.50;99.90;;;;;;5053917;28;20373;-72
2022/10/02 07:18:20;;;;;;;26.45;8.40;;;14.50;99.90;;;;;;5055802;28;20878;-72
2022/10/02 07:20:51;;;;;;;30.05;8.52;;;14.70;99.90;;;;;;5055201;28;20440;-72
2022/10/02 07:23:27;;;;;;;25.13;7.70;;;14.70;99.90;;;;;;5053454;28;20427;-72
2022/10/02 07:26:18;;;;;;;24.77;7.53;;;14.70;99.90;;;;;;5052547;28;20401;-73
2022/10/02 07:28:57;;;;;;;25.67;7.55;;;14.70;99.90;;;;;;5052287;28;20940;-72
2022/10/02 07:32:04;;;;;;;20.60;7.70;;;14.80;99.90;;;;;;5053834;28;20407;-72
2022/10/02 07:34:50;;;;;;;22.25;7.20;;;14.80;99.90;;;;;;5031355;28;20883;-71
2022/10/02 07:37:23;;;;;;;24.88;6.82;;;14.90;99.90;;;;;;5053318;28;20524;-73
2022/10/02 07:40:23;;;;;;;30.70;8.13;;;14.90;99.90;;;;;;5053612;28;20401;-74
2022/10/02 07:43:04;;;;;;;27.92;8.18;;;14.90;99.90;;;;;;5053454;28;20385;-71
2022/10/02 07:45:43;;;;;;;29.48;8.20;;;15.00;99.90;;;;;;5053654;28;20424;-73
2022/10/02 07:48:43;;;;;;;28.63;8.82;;;15.00;99.90;;;;;;5053379;28;20805;-72
2022/10/02 07:54:41;;;;;;;22.88;8.07;;;14.90;99.90;;;;;;5053160;28;20500;-72
2022/10/02 07:57:32;;;;;;;17.63;6.80;;;15.20;99.90;;;;;;5051787;28;20397;-73
2022/10/02 08:00:11;;;;;;;21.83;7.60;;;15.10;99.90;;;;;;5052956;28;20386;-72
2022/10/02 08:02:47;;;;;;;26.37;8.70;;;15.20;99.90;;;;;;5053104;28;20386;-75
2022/10/02 08:05:22;;;;;;;32.00;8.70;;;15.20;99.90;;;;;;5052984;28;20385;-72
2022/10/02 08:07:51;;;;;;;25.05;7.90;;;15.30;99.90;;;;;;5051997;28;20749;-72
2022/10/02 08:10:21;;;;;;;21.15;7.07;;;15.40;99.90;;;;;;5053396;28;20409;-72
2022/10/02 08:13:19;;;;;;;19.98;7.63;;;15.70;99.90;;;;;;5052281;28;20443;-73
2022/10/02 08:15:48;;;;;;;29.05;8.10;;;15.70;99.90;;;;;;5052553;28;20523;-72
2022/10/02 08:18:26;;;;;;;26.33;8.30;;;15.70;99.90;;;;;;5052981;28;20750;-73
2022/10/02 08:20:52;;;;;;;23.58;7.90;;;15.80;99.90;;;;;;5053276;28;20389;-72
2022/10/02 08:23:26;;;;;;;23.25;7.72;;;15.80;99.90;;;;;;5052915;28;20386;-72
2022/10/02 08:26:05;;;;;;;21.20;8.47;;;15.90;99.90;;;;;;5052809;28;20463;-75
2022/10/02 08:28:59;;;;;;;23.20;7.28;;;15.90;99.90;;;;;;5052884;28;20385;-72
2022/10/02 08:31:24;;;;;;;20.98;7.00;;;16.00;99.90;;;;;;5042339;28;20409;-72
2022/10/02 08:33:50;;;;;;;20.27;7.90;;;16.10;99.90;;;;;;5052851;28;20862;-73
2022/10/02 08:36:48;;;;;;;24.25;7.20;;;16.10;99.90;;;;;;5053023;28;20388;-72
2022/10/02 08:39:55;;;;;;;22.20;7.40;;;16.20;97.40;;;;;;5053128;28;20377;-74
2022/10/02 08:42:55;;;;;;;21.67;6.73;;;16.50;96.70;;;;;;5052996;28;20457;-73
2022/10/02 08:45:33;;;;;;;19.20;6.38;;;16.60;87.10;;;;;;5053033;28;20866;-72
2022/10/02 08:48:14;;;;;;;19.15;6.28;;;16.70;85.00;;;;;;5054022;28;20389;-73
2022/10/02 08:51:25;;;;;;;18.50;6.30;;;16.50;85.40;;;;;;5053904;28;20397;-75
2022/10/02 08:54:19;;;;;;;21.38;6.50;;;16.40;87.90;;;;;;5054445;28;20396;-73
2022/10/02 08:57:11;;;;;;;21.63;7.30;;;16.20;91.50;;;;;;5054122;28;20420;-73
2022/10/02 09:00:07;;;;;;;20.75;6.63;;;16.20;93.80;;;;;;5065729;28;20393;-73
2022/10/02 09:02:52;;;;;;;21.60;6.22;;;16.20;92.30;;;;;;5069004;28;20385;-74
2022/10/02 09:05:39;;;;;;;18.45;5.90;;;16.20;90.80;;;;;;5070327;28;20377;-73
2022/10/02 09:08:16;;;;;;;22.65;6.78;;;16.00;93.50;;;;;;5055082;28;20874;-73
2022/10/02 09:10:57;;;;;;;20.47;6.70;;;16.00;94.00;;;;;;5051974;28;20405;-73
2022/10/02 09:13:39;;;;;;;22.10;6.20;;;16.00;92.40;;;;;;5051894;28;20377;-73
2022/10/02 09:16:22;;;;;;;18.75;5.93;;;16.00;89.60;;;;;;5051489;28;20580;-72
2022/10/02 09:19:01;;;;;;;14.75;5.70;;;16.10;92.20;;;;;;5051475;28;20826;-72
2022/10/02 09:21:36;;;;;;;20.75;5.65;;;16.10;88.60;;;;;;5050980;28;20400;-72
2022/10/02 09:24:29;;;;;;;20.57;5.90;;;16.30;85.50;;;;;;5051517;28;20412;-73
2022/10/02 09:27:24;;;;;;;17.20;5.70;;;16.30;85.50;;;;;;5051983;28;20381;-73
2022/10/02 09:30:07;;;;;;;15.75;5.43;;;16.40;83.80;;;;;;5051981;28;20401;-73
2022/10/02 09:33:19;;;;;;;17.42;5.70;;;16.50;80.70;;;;;;5088363;27;20347;-72
2022/10/02 09:36:17;;;;;;;15.70;4.70;;;16.70;80.40;;;;;;5068532;28;20373;-72
2022/10/02 09:39:06;;;;;;;13.17;4.77;;;16.90;82.30;;;;;;5068501;28;20369;-72
2022/10/02 09:41:53;;;;;;;13.82;4.22;;;17.20;76.40;;;;;;5066940;28;20383;-72
2022/10/02 09:44:35;;;;;;;9.05;3.30;;;17.20;67.80;;;;;;5078120;22;20389;-73
2022/10/02 09:47:38;;;;;;;10.35;3.70;;;17.10;65.70;;;;;;5030141;28;20418;-73
2022/10/02 09:50:40;;;;;;;10.35;3.22;;;17.10;66.40;;;;;;5031113;28;20439;-73
2022/10/02 09:53:11;;;;;;;13.18;3.75;;;17.20;68.90;;;;;;5030470;28;20390;-72
2022/10/02 09:55:43;;;;;;;12.68;3.58;;;17.40;65.40;;;;;;5029086;28;20426;-74
2022/10/02 09:58:46;;;;;;;12.60;4.10;;;17.50;67.10;;;;;;5029087;28;20881;-74
2022/10/02 10:01:21;;;;;;;14.43;4.32;;;17.50;68.50;;;;;;5028717;28;20407;-73
2022/10/02 10:04:03;;;;;;;13.60;4.03;;;17.40;67.60;;;;;;5028111;28;20551;-71
2022/10/02 10:06:50;;;;;;;17.92;4.30;;;17.20;70.40;;;;;;5029915;28;20380;-73
2022/10/02 10:09:33;;;;;;;12.15;4.10;;;17.10;69.00;;;;;;5030578;28;20495;-72
2022/10/02 10:12:33;;;;;;;12.20;4.20;;;17.10;68.80;;;;;;5030046;28;20396;-71
2022/10/02 10:15:18;;;;;;;9.70;4.10;;;17.00;70.80;;;;;;5030182;28;20384;-73
2022/10/02 10:18:03;;;;;;;18.08;4.50;;;17.00;74.00;;;;;;5030402;28;20404;-73
2022/10/02 10:20:53;;;;;;;14.52;4.60;;;17.10;73.90;;;;;;5030753;28;20380;-74
2022/10/02 10:23:40;;;;;;;11.10;4.10;;;17.20;69.30;;;;;;5020201;28;20392;-75
2022/10/02 10:26:33;;;;;;;12.05;3.53;;;17.40;68.00;;;;;;5029354;28;20391;-71
2022/10/02 10:29:15;;;;;;;13.57;4.45;;;17.50;69.60;;;;;;5028185;28;20380;-72
2022/10/02 10:31:55;;;;;;;11.88;4.00;;;17.60;67.30;;;;;;5028272;28;21042;-72
2022/10/02 10:34:49;;;;;;;11.77;3.90;;;17.80;63.70;;;;;;5029800;28;20753;-72
2022/10/02 10:40:28;;;;;;;15.68;5.10;;;18.20;62.90;;;;;;5030505;28;20425;-73
2022/10/02 10:43:27;;;;;;;13.07;4.43;;;18.40;54.20;;;;;;5024460;28;20385;-74
2022/10/02 10:46:33;;;;;;;14.95;4.50;;;18.50;54.30;;;;;;5021902;28;20495;-74
2022/10/02 10:49:19;;;;;;;15.18;4.50;;;18.10;56.00;;;;;;5018542;28;20447;-72
2022/10/02 10:52:24;;;;;;;13.93;4.82;;;17.90;58.60;;;;;;5015553;28;20451;-72
2022/10/02 10:55:08;;;;;;;15.47;4.90;;;17.70;61.80;;;;;;5016837;28;20385;-72
2022/10/02 10:57:59;;;;;;;14.50;4.35;;;17.80;62.20;;;;;;5016167;28;20396;-74
2022/10/02 11:00:51;;;;;;;14.25;5.15;;;17.70;62.70;;;;;;5016380;28;20745;-73
2022/10/02 11:04:04;;;;;;;15.25;4.60;;;17.60;59.40;;;;;;5016524;28;20392;-72
2022/10/02 11:06:41;;;;;;;10.63;4.78;;;17.70;58.30;;;;;;5007758;28;20773;-74
2022/10/02 11:09:22;;;;;;;14.55;4.25;;;17.90;56.50;;;;;;5016275;28;20408;-73
2022/10/02 11:12:11;;;;;;;14.15;4.50;;;18.10;55.70;;;;;;5016312;28;20397;-73
2022/10/02 11:14:56;;;;;;;11.10;3.87;;;18.20;53.10;;;;;;5014853;28;20392;-72
2022/10/02 11:17:30;;;;;;;14.25;4.30;;;18.00;54.00;;;;;;5016052;28;20384;-72
2022/10/02 11:20:28;;;;;;;15.00;4.00;;;17.80;51.50;;;;;;5016291;28;20806;-72
2022/10/02 11:23:22;;;;;;;18.75;4.90;;;17.90;48.90;;;;;;5016109;28;20726;-73
2022/10/02 11:26:07;;;;;;;10.40;4.10;;;18.20;48.50;;;;;;5016120;28;20791;-71
2022/10/02 11:28:51;;;;;;;15.85;4.80;;;18.40;48.10;;;;;;5014507;28;20455;-73
2022/10/02 11:31:53;;;;;;;16.85;4.30;;;18.60;48.20;;;;;;5015572;28;20405;-74
2022/10/02 11:34:49;;;;;;;14.23;4.40;;;18.40;45.40;;;;;;5014693;28;20401;-72
2022/10/02 11:37:41;;;;;;;13.80;4.30;;;18.30;45.50;;;;;;5016248;28;20385;-72
2022/10/02 11:40:22;;;;;;;18.08;4.32;;;18.10;45.40;;;;;;5015744;28;20396;-74
2022/10/02 11:43:16;;;;;;;16.98;4.80;;;18.30;47.00;;;;;;5015554;28;20399;-77
2022/10/02 11:46:05;;;;;;;15.07;4.00;;;18.60;42.90;;;;;;5016813;28;20420;-74
2022/10/02 11:49:02;;;;;;;17.05;4.35;;;19.00;42.50;;;;;;5013980;28;20399;-74
2022/10/02 11:51:44;;;;;;;13.60;4.10;;;18.90;38.30;;;;;;5015727;28;20401;-73
2022/10/02 11:54:35;;;;;;;18.10;4.68;;;19.30;36.60;;;;;;5013859;28;20385;-73
2022/10/02 11:57:20;;;;;;;12.82;4.53;;;19.30;34.70;;;;;;5017294;28;20392;-72
2022/10/02 11:59:51;;;;;;;15.18;4.57;;;19.30;34.00;;;;;;5015641;28;20389;-73
2022/10/02 12:02:26;;;;;;;15.15;4.43;;;19.40;33.50;;;;;;5014088;28;20385;-73
2022/10/02 12:05:26;;;;;;;12.00;4.03;;;19.40;34.30;;;;;;5014763;28;20428;-74
2022/10/02 12:07:52;;;;;;;13.30;3.80;;;19.40;35.10;;;;;;5016575;28;21057;-73
2022/10/02 12:10:40;;;;;;;14.85;4.00;;;19.50;34.90;;;;;;5015673;28;20448;-73
2022/10/02 12:13:14;;;;;;;10.13;3.80;;;19.50;35.90;;;;;;5014716;28;20408;-73
2022/10/02 12:16:04;;;;;;;16.63;5.30;;;19.50;32.30;;;;;;5012407;28;20421;-72
2022/10/02 12:18:57;;;;;;;13.75;3.97;;;19.40;33.60;;;;;;5013074;28;20415;-72
2022/10/02 12:28:09;;;;;;;14.55;3.53;;;19.30;35.00;;;;;;5008493;28;20889;-72
2022/10/02 12:30:38;;;;;;;11.75;3.95;;;19.30;32.70;;;;;;5014263;28;20389;-74
2022/10/02 12:33:21;;;;;;;15.70;5.43;;;19.10;34.50;;;;;;5015821;28;20404;-74
2022/10/02 12:36:04;;;;;;;14.17;3.80;;;19.40;34.20;;;;;;5020814;28;20860;-70
2022/10/02 12:38:54;;;;;;;12.00;3.90;;;19.70;33.80;;;;;;5028157;28;20384;-71
2022/10/02 12:41:46;;;;;;;15.20;4.30;;;19.90;31.70;;;;;;5030119;28;20403;-71
2022/10/02 12:44:24;;;;;;;15.35;3.92;;;19.90;30.50;;;;;;5026708;28;20385;-70
2022/10/02 12:47:14;;;;;;;15.65;3.85;;;19.90;30.20;;;;;;5021473;28;20392;-71
2022/10/02 12:49:49;;;;;;;14.05;3.40;;;19.90;29.90;;;;;;5020828;28;20396;-71
2022/10/02 12:52:53;;;;;;;10.90;3.08;;;19.80;26.30;;;;;;5021353;28;20454;-72
2022/10/02 12:55:46;;;;;;;15.38;3.55;;;19.50;28.40;;;;;;5021942;28;20389;-73
2022/10/02 12:58:49;;;;;;;13.15;3.90;;;19.00;31.30;;;;;;5023145;28;20389;-70
2022/10/02 13:01:33;;;;;;;11.52;3.40;;;18.80;31.30;;;;;;5022221;28;20442;-71
2022/10/02 13:04:40;;;;;;;14.43;3.50;;;18.80;30.70;;;;;;5016928;28;20393;-71
2022/10/02 13:07:12;;;;;;;13.77;4.10;;;19.10;31.10;;;;;;5016413;28;20407;-72
2022/10/02 13:09:59;;;;;;;14.25;4.25;;;19.00;31.10;;;;;;5019844;28;20415;-71
2022/10/02 13:12:40;;;;;;;11.45;4.22;;;19.00;30.90;;;;;;5019425;28;20439;-73
2022/10/02 13:15:41;;;;;;;11.95;3.90;;;19.10;31.30;;;;;;5021169;28;20376;-74
2022/10/02 13:18:24;;;;;;;14.45;4.38;;;19.20;30.00;;;;;;5018629;28;20396;-72
2022/10/02 13:21:03;;;;;;;15.80;5.80;;;19.00;30.80;;;;;;5018759;28;20815;-72
2022/10/02 13:23:47;;;;;;;11.38;4.00;;;19.10;31.20;;;;;;5022409;28;20770;-72
2022/10/02 13:26:32;;;;;;;14.23;5.25;;;19.30;30.00;;;;;;5022783;28;20391;-74
2022/10/02 13:28:57;;;;;;;19.45;4.50;;;19.30;30.20;;;;;;5013674;28;20402;-72
2022/10/02 13:31:56;;;;;;;16.67;4.67;;;19.40;30.00;;;;;;5011412;28;20405;-72
2022/10/02 13:34:28;;;;;;;12.43;4.28;;;19.50;29.50;;;;;;5011646;28;20388;-72
2022/10/02 13:37:18;;;;;;;15.27;4.70;;;19.60;28.20;;;;;;5011787;28;20460;-72
2022/10/02 13:39:59;;;;;;;17.73;4.97;;;19.70;27.50;;;;;;5011965;28;20372;-71
2022/10/02 13:42:35;;;;;;;15.77;5.00;;;20.20;26.40;;;;;;5011535;28;20376;-72
2022/10/02 13:45:31;;;;;;;13.15;4.45;;;20.40;27.30;;;;;;5011605;28;20397;-72
2022/10/02 13:48:18;;;;;;;14.05;4.68;;;20.30;26.90;;;;;;5011979;28;20397;-71
2022/10/02 13:50:51;;;;;;;12.18;4.65;;;20.10;27.70;;;;;;5010777;28;20400;-74
2022/10/02 13:53:43;;;;;;;13.52;4.90;;;19.70;27.60;;;;;;5011705;28;20921;-72
2022/10/02 13:56:27;;;;;;;15.95;4.43;;;19.40;29.30;;;;;;5011614;28;20389;-73
2022/10/02 13:58:53;;;;;;;17.67;4.80;;;19.40;30.50;;;;;;5012004;28;20423;-72
2022/10/02 14:01:37;;;;;;;16.03;4.47;;;19.10;30.00;;;;;;5012318;28;21045;-71
2022/10/02 14:04:35;;;;;;;12.85;4.70;;;18.80;30.10;;;;;;5012019;28;20385;-75
2022/10/02 14:07:13;;;;;;;9.80;3.83;;;18.70;31.80;;;;;;5011794;28;20385;-72
2022/10/02 14:10:01;;;;;;;13.90;4.15;;;18.60;31.40;;;;;;5011830;28;20403;-71